createdAt,value
2017-05-11T00:00:30.806Z,98.02
2017-05-11T00:01:30.823Z,98.3
2017-05-11T00:02:30.843Z,98.11
2017-05-11T00:03:30.861Z,98.49
2017-05-11T00:04:30.883Z,99.06
2017-05-11T00:05:30.903Z,98.97
2017-05-11T00:06:30.917Z,99.54
2017-05-11T00:08:30.955Z,99.35
2017-05-11T00:09:30.974Z,99.91
2017-05-11T00:10:30.995Z,99.99
2017-05-11T00:11:31.012Z,99.99
2017-05-11T00:12:31.030Z,99.99
2017-05-11T00:13:31.051Z,99.99
2017-05-11T00:14:31.072Z,99.99
2017-05-11T00:15:31.091Z,99.99
2017-05-11T00:16:31.106Z,99.99
2017-05-11T00:17:31.127Z,99.99
2017-05-11T00:18:31.145Z,99.99
2017-05-11T00:19:31.161Z,99.99
2017-05-11T00:20:31.181Z,99.99
2017-05-11T00:23:31.239Z,99.99
2017-05-11T00:24:31.256Z,99.99
2017-05-11T00:25:31.273Z,99.99
2017-05-11T00:26:45.908Z,99.99
2017-05-11T00:27:31.314Z,99.99
2017-05-11T00:28:31.331Z,99.99
2017-05-11T00:29:31.351Z,99.99
2017-05-11T00:30:31.368Z,99.99
2017-05-11T00:31:31.390Z,99.99
2017-05-11T00:32:31.404Z,99.99
2017-05-11T00:33:31.423Z,99.99
2017-05-11T00:34:31.440Z,99.99
2017-05-11T00:35:31.461Z,99.99
2017-05-11T00:36:31.479Z,99.99
2017-05-11T00:37:31.496Z,99.99
2017-05-11T00:38:31.518Z,99.99
2017-05-11T00:39:31.535Z,99.99
2017-05-11T00:40:31.553Z,99.99
2017-05-11T00:41:31.571Z,99.99
2017-05-11T00:42:46.205Z,99.99
2017-05-11T00:43:31.610Z,99.99
2017-05-11T00:44:31.625Z,99.99
2017-05-11T00:45:31.648Z,99.99
2017-05-11T00:46:31.663Z,99.99
2017-05-11T00:47:31.682Z,99.99
2017-05-11T00:48:31.701Z,99.99
2017-05-11T00:49:31.721Z,99.99
2017-05-11T00:50:31.739Z,99.99
2017-05-11T00:51:31.755Z,99.99
2017-05-11T00:52:31.775Z,99.99
2017-05-11T00:53:31.793Z,99.99
2017-05-11T00:54:31.815Z,99.99
2017-05-11T00:55:31.830Z,99.99
2017-05-11T00:56:31.849Z,99.99
2017-05-11T00:57:31.869Z,99.99
2017-05-11T00:58:46.503Z,99.99
2017-05-11T00:59:31.904Z,99.99
2017-05-11T01:00:31.921Z,99.99
2017-05-11T01:01:31.943Z,99.99
2017-05-11T01:02:31.963Z,99.99
2017-05-11T01:03:31.978Z,99.99
2017-05-11T01:04:31.994Z,99.99
2017-05-11T01:05:32.015Z,99.99
2017-05-11T01:06:32.032Z,99.99
2017-05-11T01:07:32.049Z,99.99
2017-05-11T01:09:32.087Z,99.99
2017-05-11T01:10:32.107Z,99.99
2017-05-11T01:11:32.123Z,99.99
2017-05-11T01:12:32.141Z,99.99
2017-05-11T01:13:32.158Z,99.99
2017-05-11T01:14:46.793Z,99.99
2017-05-11T01:15:32.199Z,99.99
2017-05-11T01:16:32.214Z,99.99
2017-05-11T01:17:32.231Z,99.99
2017-05-11T01:18:32.253Z,99.99
2017-05-11T01:19:32.269Z,99.99
2017-05-11T01:20:32.287Z,99.99
2017-05-11T01:21:32.305Z,99.99
2017-05-11T01:22:32.325Z,99.99
2017-05-11T01:23:32.343Z,99.99
2017-05-11T01:24:32.359Z,99.99
2017-05-11T01:25:32.378Z,99.99
2017-05-11T01:26:32.396Z,99.99
2017-05-11T01:27:32.415Z,99.99
2017-05-11T01:28:32.437Z,99.99
2017-05-11T01:29:47.067Z,99.99
2017-05-11T01:30:32.470Z,99.99
2017-05-11T01:31:32.489Z,99.99
2017-05-11T01:32:32.506Z,99.99
2017-05-11T01:33:32.523Z,99.99
2017-05-11T01:34:32.542Z,99.99
2017-05-11T01:35:32.559Z,99.99
2017-05-11T01:36:32.577Z,99.99
2017-05-11T01:37:32.596Z,99.99
2017-05-11T01:38:32.615Z,99.99
2017-05-11T01:39:32.632Z,99.99
2017-05-11T01:40:32.650Z,99.99
2017-05-11T01:42:32.687Z,99.99
2017-05-11T01:43:32.709Z,99.99
2017-05-11T01:44:32.723Z,99.99
2017-05-11T01:45:32.740Z,99.99
2017-05-11T01:46:32.760Z,99.99
2017-05-11T01:47:32.776Z,99.99
2017-05-11T01:48:32.794Z,99.99
2017-05-11T01:49:32.813Z,99.99
2017-05-11T01:50:32.831Z,99.99
2017-05-11T01:51:32.848Z,99.99
2017-05-11T01:52:32.868Z,99.99
2017-05-11T01:53:32.885Z,99.99
2017-05-11T01:54:32.902Z,99.99
2017-05-11T01:55:32.919Z,99.99
2017-05-11T01:56:32.937Z,99.99
2017-05-11T01:57:32.956Z,99.99
2017-05-11T01:58:32.974Z,99.99
2017-05-11T01:59:32.991Z,99.99
2017-05-11T02:00:33.009Z,99.99
2017-05-11T02:01:47.642Z,99.99
2017-05-11T02:02:33.044Z,99.99
2017-05-11T02:03:33.062Z,99.99
2017-05-11T02:04:33.082Z,99.99
2017-05-11T02:05:33.099Z,99.99
2017-05-11T02:06:33.116Z,99.99
2017-05-11T02:07:33.140Z,99.99
2017-05-11T02:08:33.151Z,99.99
2017-05-11T02:09:33.172Z,99.99
2017-05-11T02:10:33.196Z,99.99
2017-05-11T02:11:33.207Z,99.99
2017-05-11T02:12:33.222Z,99.99
2017-05-11T02:13:33.240Z,99.99
2017-05-11T02:14:33.261Z,99.99
2017-05-11T02:15:33.277Z,99.99
2017-05-11T02:16:33.295Z,99.99
2017-05-11T02:17:47.927Z,99.99
2017-05-11T02:18:33.335Z,99.99
2017-05-11T02:19:33.349Z,99.99
2017-05-11T02:20:33.365Z,99.99
2017-05-11T02:21:33.385Z,99.99
2017-05-11T02:22:33.400Z,99.99
2017-05-11T02:23:33.419Z,99.99
2017-05-11T02:24:33.735Z,99.99
2017-05-11T02:25:33.495Z,99.99
2017-05-11T02:27:33.490Z,99.99
2017-05-11T02:28:33.206Z,99.99
2017-05-11T02:29:33.523Z,99.99
2017-05-11T02:30:33.546Z,99.99
2017-05-11T02:31:33.562Z,99.99
2017-05-11T02:32:33.579Z,99.99
2017-05-11T02:33:48.210Z,99.99
2017-05-11T02:34:33.613Z,99.99
2017-05-11T02:35:33.631Z,99.99
2017-05-11T02:36:33.648Z,99.99
2017-05-11T02:37:33.668Z,99.99
2017-05-11T02:38:33.683Z,99.99
2017-05-11T02:39:33.701Z,99.99
2017-05-11T02:40:33.719Z,99.99
2017-05-11T02:41:33.735Z,99.99
2017-05-11T02:42:33.755Z,99.99
2017-05-11T02:43:33.467Z,99.99
2017-05-11T02:46:33.826Z,99.99
2017-05-11T02:47:33.843Z,99.99
2017-05-11T02:48:33.859Z,99.99
2017-05-11T02:49:48.492Z,99.99
2017-05-11T02:50:33.897Z,99.99
2017-05-11T02:51:33.913Z,99.99
2017-05-11T02:52:33.933Z,99.99
2017-05-11T02:53:33.962Z,99.99
2017-05-11T02:54:33.965Z,99.99
2017-05-11T02:55:33.983Z,99.99
2017-05-11T02:56:34.002Z,99.99
2017-05-11T02:57:34.023Z,99.99
2017-05-11T02:58:34.034Z,99.99
2017-05-11T03:00:34.113Z,99.99
2017-05-11T03:01:34.089Z,99.99
2017-05-11T03:03:34.124Z,99.99
2017-05-11T03:04:48.757Z,99.99
2017-05-11T03:06:34.178Z,99.99
2017-05-11T03:07:34.192Z,99.99
2017-05-11T03:08:34.213Z,99.99
2017-05-11T03:09:34.230Z,99.99
2017-05-11T03:10:34.245Z,99.99
2017-05-11T03:11:34.262Z,99.99
2017-05-11T03:12:34.280Z,99.99
2017-05-11T03:13:34.301Z,99.99
2017-05-11T03:14:34.317Z,99.99
2017-05-11T03:15:34.333Z,99.99
2017-05-11T03:18:34.386Z,99.99
2017-05-11T03:19:34.405Z,99.99
2017-05-11T03:20:34.421Z,99.99
2017-05-11T03:21:34.443Z,99.99
2017-05-11T03:22:34.455Z,99.99
2017-05-11T03:23:34.473Z,99.99
2017-05-11T03:24:34.490Z,99.99
2017-05-11T03:25:34.508Z,99.99
2017-05-11T03:26:34.529Z,99.99
2017-05-11T03:27:34.544Z,99.99
2017-05-11T03:28:34.561Z,99.99
2017-05-11T03:29:34.577Z,99.99
2017-05-11T03:33:34.651Z,99.99
2017-05-11T03:34:34.665Z,99.99
2017-05-11T03:35:34.681Z,99.99
2017-05-11T03:36:49.316Z,99.99
2017-05-11T03:37:34.720Z,99.99
2017-05-11T03:38:34.738Z,99.99
2017-05-11T03:39:34.752Z,99.99
2017-05-11T03:40:34.773Z,99.99
2017-05-11T03:41:34.788Z,99.99
2017-05-11T03:42:34.809Z,99.99
2017-05-11T03:43:34.824Z,99.99
2017-05-11T03:44:34.843Z,99.99
2017-05-11T03:45:34.860Z,99.99
2017-05-11T03:46:34.877Z,99.99
2017-05-11T03:48:34.912Z,99.99
2017-05-11T03:49:34.931Z,99.99
2017-05-11T03:50:34.948Z,99.99
2017-05-11T03:51:34.970Z,99.99
2017-05-11T03:52:49.599Z,99.99
2017-05-11T03:53:35.002Z,99.99
2017-05-11T03:54:35.019Z,99.99
2017-05-11T03:55:35.036Z,99.99
2017-05-11T03:56:35.065Z,99.99
2017-05-11T03:57:35.074Z,99.99
2017-05-11T03:58:35.091Z,99.99
2017-05-11T03:59:35.109Z,99.99
2017-05-11T04:00:35.129Z,99.99
2017-05-11T04:01:35.146Z,99.99
2017-05-11T04:02:35.163Z,99.99
2017-05-11T04:03:35.181Z,99.99
2017-05-11T04:06:35.260Z,99.99
2017-05-11T04:07:35.254Z,99.99
2017-05-11T04:08:49.888Z,99.99
2017-05-11T04:09:35.291Z,99.99
2017-05-11T04:10:35.310Z,99.99
2017-05-11T04:11:35.328Z,99.99
2017-05-11T04:12:35.346Z,99.99
2017-05-11T04:13:35.363Z,99.99
2017-05-11T04:14:35.384Z,99.99
2017-05-11T04:15:35.405Z,99.99
2017-05-11T04:16:35.418Z,99.99
2017-05-11T04:17:35.437Z,99.99
2017-05-11T04:18:35.457Z,99.99
2017-05-11T04:19:35.476Z,99.99
2017-05-11T04:20:35.494Z,99.99
2017-05-11T04:21:35.514Z,99.99
2017-05-11T04:22:35.530Z,99.99
2017-05-11T04:23:35.548Z,99.99
2017-05-11T04:24:50.182Z,99.99
2017-05-11T04:25:35.585Z,99.99
2017-05-11T04:26:35.606Z,99.99
2017-05-11T04:27:35.622Z,99.99
2017-05-11T04:28:35.641Z,99.99
2017-05-11T04:29:35.662Z,99.99
2017-05-11T04:30:35.678Z,99.99
2017-05-11T04:31:35.698Z,99.99
2017-05-11T04:32:35.719Z,99.99
2017-05-11T04:33:35.743Z,99.99
2017-05-11T04:34:35.754Z,99.99
2017-05-11T04:36:35.791Z,99.99
2017-05-11T04:37:35.819Z,99.99
2017-05-11T04:38:35.832Z,99.99
2017-05-11T04:39:50.465Z,99.99
2017-05-11T04:40:35.868Z,99.99
2017-05-11T04:41:35.889Z,99.99
2017-05-11T04:42:35.906Z,99.99
2017-05-11T04:43:35.925Z,99.99
2017-05-11T04:44:35.943Z,99.99
2017-05-11T04:45:35.961Z,99.99
2017-05-11T04:46:35.980Z,99.99
2017-05-11T04:47:36.000Z,99.99
2017-05-11T04:49:36.038Z,99.99
2017-05-11T04:50:36.057Z,99.99
2017-05-11T04:52:36.095Z,99.99
2017-05-11T04:53:36.117Z,99.99
2017-05-11T04:54:36.140Z,99.99
2017-05-11T04:55:36.152Z,99.99
2017-05-11T04:56:36.172Z,99.99
2017-05-11T04:57:36.191Z,99.99
2017-05-11T04:58:36.215Z,99.99
2017-05-11T04:59:36.229Z,99.88
2017-05-11T05:00:36.248Z,99.59
2017-05-11T05:01:36.318Z,98.26
2017-05-11T05:02:36.296Z,97.55
2017-05-11T05:03:36.308Z,96.5
2017-05-11T05:04:36.359Z,95.94
2017-05-11T05:05:36.346Z,95.65
2017-05-11T05:06:36.368Z,95.46
2017-05-11T05:08:36.406Z,93.7
2017-05-11T05:09:36.428Z,92.56
2017-05-11T05:10:36.448Z,92.27
2017-05-11T05:11:51.083Z,91.61
2017-05-11T05:12:36.489Z,91.17
2017-05-11T05:13:36.510Z,90.61
2017-05-11T05:14:36.530Z,90.32
2017-05-11T05:15:36.549Z,89.37
2017-05-11T05:16:36.572Z,88.93
2017-05-11T05:17:36.597Z,87.7
2017-05-11T05:18:36.614Z,86.75
2017-05-11T05:19:36.634Z,86.46
2017-05-11T05:21:36.678Z,84.88
2017-05-11T05:22:36.697Z,85.36
2017-05-11T05:23:36.718Z,83.55
2017-05-11T05:24:36.440Z,83.4
2017-05-11T05:26:36.785Z,82.64
2017-05-11T05:27:51.425Z,81.68
2017-05-11T05:28:36.832Z,81.97
2017-05-11T05:29:36.853Z,81.15
2017-05-11T05:30:36.874Z,80.77
2017-05-11T05:31:36.908Z,80.39
2017-05-11T05:32:36.919Z,79.15
2017-05-11T05:33:36.944Z,78.14
2017-05-11T05:34:36.966Z,78.05
2017-05-11T05:35:36.989Z,77.47
2017-05-11T05:36:37.010Z,77.28
2017-05-11T05:37:37.035Z,78.14
2017-05-11T05:38:37.057Z,77.86
2017-05-11T05:39:37.082Z,78.23
2017-05-11T05:40:37.143Z,77.47
2017-05-11T05:41:37.125Z,79.06
2017-05-11T05:42:37.149Z,78.2
2017-05-11T05:43:51.789Z,78.77
2017-05-11T05:44:37.194Z,78.43
2017-05-11T05:45:37.218Z,77.67
2017-05-11T05:46:37.243Z,77.47
2017-05-11T05:47:37.268Z,76.14
2017-05-11T05:48:37.287Z,75.57
2017-05-11T05:49:37.313Z,75.47
2017-05-11T05:50:37.338Z,76.33
2017-05-11T05:51:37.358Z,76.42
2017-05-11T05:52:37.384Z,76.14
2017-05-11T05:53:37.406Z,76.27
2017-05-11T05:54:37.432Z,75.22
2017-05-11T05:55:37.150Z,74.46
2017-05-11T05:57:37.501Z,73.98
2017-05-11T05:58:37.523Z,74.17
2017-05-11T05:59:52.165Z,73.83
2017-05-11T06:00:37.571Z,72.68
2017-05-11T06:01:37.598Z,72.49
2017-05-11T06:02:37.622Z,71.47
2017-05-11T06:03:37.692Z,71.38
2017-05-11T06:04:37.667Z,71.57
2017-05-11T06:05:37.692Z,71.82
2017-05-11T06:06:37.716Z,71.34
2017-05-11T06:07:37.741Z,71.44
2017-05-11T06:08:37.765Z,70.87
2017-05-11T06:09:37.495Z,69.47
2017-05-11T06:10:37.814Z,70.23
2017-05-11T06:12:37.865Z,68.49
2017-05-11T06:13:37.891Z,67.53
2017-05-11T06:14:52.533Z,67.34
2017-05-11T06:15:37.941Z,67.63
2017-05-11T06:16:37.966Z,66.7
2017-05-11T06:17:37.995Z,65.45
2017-05-11T06:18:38.019Z,64.05
2017-05-11T06:19:38.045Z,63.67
2017-05-11T06:20:38.069Z,63.42
2017-05-11T06:21:38.095Z,63.13
2017-05-11T06:22:38.121Z,61.24
2017-05-11T06:23:38.147Z,61.34
2017-05-11T06:24:38.173Z,59.55
2017-05-11T06:25:38.204Z,57.75
2017-05-11T06:28:38.280Z,54.9
2017-05-11T06:29:38.309Z,53.97
2017-05-11T06:30:38.336Z,53.58
2017-05-11T06:31:38.366Z,55.1
2017-05-11T06:32:38.393Z,53.32
2017-05-11T06:33:38.422Z,50.85
2017-05-11T06:34:38.450Z,50.08
2017-05-11T06:35:38.478Z,49.91
2017-05-11T06:36:38.508Z,50.46
2017-05-11T06:37:38.538Z,50.18
2017-05-11T06:38:38.566Z,50.3
2017-05-11T06:39:38.594Z,49.91
2017-05-11T06:40:38.628Z,48.88
2017-05-11T06:41:38.657Z,47.92
2017-05-11T06:42:38.688Z,48.3
2017-05-11T06:44:38.749Z,47.1
2017-05-11T06:45:38.779Z,47.39
2017-05-11T06:46:53.429Z,45.97
2017-05-11T06:47:38.843Z,44.46
2017-05-11T06:48:38.874Z,43.04
2017-05-11T06:49:38.904Z,42.63
2017-05-11T06:50:38.937Z,43.75
2017-05-11T06:51:38.968Z,43.65
2017-05-11T06:52:39.002Z,43.65
2017-05-11T06:53:39.035Z,44.23
2017-05-11T06:54:39.065Z,44.06
2017-05-11T06:55:39.102Z,43.33
2017-05-11T06:56:39.130Z,41.61
2017-05-11T06:57:39.162Z,40.07
2017-05-11T06:58:39.196Z,40.94
2017-05-11T06:59:39.228Z,42.05
2017-05-11T07:00:39.265Z,42.54
2017-05-11T07:01:39.292Z,41.78
2017-05-11T07:02:53.947Z,39.22
2017-05-11T07:03:39.360Z,40.26
2017-05-11T07:04:39.393Z,40.92
2017-05-11T07:05:39.429Z,41.11
2017-05-11T07:06:39.460Z,40.75
2017-05-11T07:07:39.495Z,40.15
2017-05-11T07:08:39.529Z,39.87
2017-05-11T07:09:39.563Z,40.53
2017-05-11T07:10:39.595Z,40.97
2017-05-11T07:11:39.628Z,40.51
2017-05-11T07:13:39.701Z,41.55
2017-05-11T07:14:39.736Z,40.72
2017-05-11T07:15:39.765Z,39.86
2017-05-11T07:16:39.797Z,38.23
2017-05-11T07:17:39.834Z,40.42
2017-05-11T07:18:54.485Z,40.32
2017-05-11T07:19:39.899Z,40.22
2017-05-11T07:20:39.934Z,40.05
2017-05-11T07:21:39.973Z,39.37
2017-05-11T07:22:40.009Z,39.11
2017-05-11T07:23:40.035Z,40.24
2017-05-11T07:24:40.071Z,39.54
2017-05-11T07:25:40.106Z,39.66
2017-05-11T07:26:40.147Z,39.66
2017-05-11T07:27:40.173Z,39.86
2017-05-11T07:28:40.206Z,39.37
2017-05-11T07:29:40.241Z,40.32
2017-05-11T07:30:40.273Z,40.32
2017-05-11T07:31:40.311Z,39.62
2017-05-11T07:32:40.349Z,41.22
2017-05-11T07:33:40.374Z,43.41
2017-05-11T07:34:55.027Z,41.61
2017-05-11T07:35:40.442Z,40.86
2017-05-11T07:36:40.476Z,41.44
2017-05-11T07:37:40.511Z,40.3
2017-05-11T07:38:40.543Z,39.53
2017-05-11T07:39:40.576Z,40.61
2017-05-11T07:40:40.609Z,39.74
2017-05-11T07:41:40.643Z,41.19
2017-05-11T07:42:40.679Z,39.91
2017-05-11T07:43:40.713Z,39.53
2017-05-11T07:44:40.745Z,40.2
2017-05-11T07:45:40.777Z,40.11
2017-05-11T07:47:40.848Z,40.76
2017-05-11T07:48:40.879Z,42.26
2017-05-11T07:49:55.530Z,41.99
2017-05-11T07:50:40.945Z,41.03
2017-05-11T07:51:41.017Z,41.89
2017-05-11T07:52:41.010Z,41.99
2017-05-11T07:53:41.044Z,41.71
2017-05-11T07:54:41.078Z,42.02
2017-05-11T07:55:41.111Z,42.02
2017-05-11T07:56:41.142Z,41.53
2017-05-11T07:57:41.177Z,41.99
2017-05-11T07:58:41.208Z,41.44
2017-05-11T07:59:41.241Z,40.11
2017-05-11T08:00:41.282Z,40.12
2017-05-11T08:01:41.308Z,39.84
2017-05-11T08:02:41.339Z,40.64
2017-05-11T08:03:41.373Z,42.82
2017-05-11T08:04:41.407Z,42.89
2017-05-11T08:05:41.440Z,42.43
2017-05-11T08:06:41.474Z,41.99
2017-05-11T08:07:41.506Z,42.26
2017-05-11T08:08:41.538Z,41.82
2017-05-11T08:09:41.568Z,40.28
2017-05-11T08:10:41.603Z,39.43
2017-05-11T08:11:41.636Z,38.95
2017-05-11T08:12:41.668Z,39.26
2017-05-11T08:13:41.704Z,39.94
2017-05-11T08:14:41.732Z,38.21
2017-05-11T08:16:41.797Z,37.17
2017-05-11T08:17:41.843Z,37.96
2017-05-11T08:18:41.916Z,38.35
2017-05-11T08:19:41.899Z,35.84
2017-05-11T08:20:41.928Z,35.76
2017-05-11T08:21:56.580Z,35.57
2017-05-11T08:22:41.995Z,35.76
2017-05-11T08:23:42.027Z,35.74
2017-05-11T08:24:42.059Z,36.03
2017-05-11T08:25:42.097Z,36.4
2017-05-11T08:26:42.129Z,37.58
2017-05-11T08:27:42.159Z,36.15
2017-05-11T08:28:42.191Z,35.1
2017-05-11T08:29:42.226Z,35.42
2017-05-11T08:30:42.260Z,34.45
2017-05-11T08:31:42.292Z,34.83
2017-05-11T08:32:42.020Z,35
2017-05-11T08:34:42.391Z,35.1
2017-05-11T08:35:42.428Z,34.71
2017-05-11T08:36:42.461Z,34.33
2017-05-11T08:37:57.111Z,35.34
2017-05-11T08:38:42.527Z,36.21
2017-05-11T08:39:42.558Z,36.3
2017-05-11T08:40:42.595Z,36.32
2017-05-11T08:41:42.626Z,34.7
2017-05-11T08:42:42.660Z,34.52
2017-05-11T08:43:42.692Z,34.83
2017-05-11T08:44:42.726Z,35.31
2017-05-11T08:45:42.759Z,34.34
2017-05-11T08:46:42.793Z,34.27
2017-05-11T08:47:42.825Z,33.86
2017-05-11T08:48:42.858Z,33.37
2017-05-11T08:50:42.927Z,34.15
2017-05-11T08:51:42.959Z,34.71
2017-05-11T08:52:42.991Z,35
2017-05-11T08:53:57.644Z,33.95
2017-05-11T08:54:43.058Z,33.18
2017-05-11T08:55:43.091Z,33.2
2017-05-11T08:56:43.127Z,33.55
2017-05-11T08:57:43.195Z,34.5
2017-05-11T08:58:43.193Z,34.5
2017-05-11T08:59:43.235Z,34.78
2017-05-11T09:00:43.259Z,35.58
2017-05-11T09:01:43.297Z,34.33
2017-05-11T09:02:43.325Z,34.7
2017-05-11T09:03:43.361Z,35.84
2017-05-11T09:04:43.392Z,37.19
2017-05-11T09:05:43.427Z,36.03
2017-05-11T09:06:43.458Z,35.84
2017-05-11T09:07:43.490Z,35.74
2017-05-11T09:08:43.522Z,34.5
2017-05-11T09:09:58.174Z,34.52
2017-05-11T09:10:43.587Z,34.6
2017-05-11T09:11:43.622Z,34.5
2017-05-11T09:12:43.653Z,34.41
2017-05-11T09:13:43.688Z,35.47
2017-05-11T09:14:43.721Z,35.08
2017-05-11T09:15:43.751Z,36.07
2017-05-11T09:16:43.786Z,35.12
2017-05-11T09:17:43.818Z,34.83
2017-05-11T09:18:43.849Z,33.29
2017-05-11T09:19:43.881Z,34.63
2017-05-11T09:21:43.946Z,32.91
2017-05-11T09:22:43.981Z,34.73
2017-05-11T09:23:44.014Z,35.08
2017-05-11T09:24:58.663Z,35.06
2017-05-11T09:25:44.082Z,34.58
2017-05-11T09:26:44.114Z,33.83
2017-05-11T09:27:44.143Z,34.7
2017-05-11T09:28:44.177Z,35.28
2017-05-11T09:29:44.208Z,36.11
2017-05-11T09:30:44.238Z,36
2017-05-11T09:31:44.274Z,36.8
2017-05-11T09:32:44.303Z,35.36
2017-05-11T09:34:44.367Z,36.57
2017-05-11T09:36:44.431Z,37.25
2017-05-11T09:38:44.495Z,36.87
2017-05-11T09:39:44.527Z,36.57
2017-05-11T09:40:44.559Z,36.21
2017-05-11T09:41:44.592Z,35.44
2017-05-11T09:42:44.621Z,35.16
2017-05-11T09:43:44.652Z,35.26
2017-05-11T09:44:44.683Z,35.16
2017-05-11T09:45:44.714Z,34.97
2017-05-11T09:46:44.748Z,35.24
2017-05-11T09:47:44.777Z,34.97
2017-05-11T09:48:44.812Z,35.06
2017-05-11T09:50:44.874Z,35.36
2017-05-11T09:51:44.903Z,36.01
2017-05-11T09:52:44.932Z,36.48
2017-05-11T09:53:44.965Z,35.92
2017-05-11T09:54:44.996Z,36.4
2017-05-11T09:55:45.030Z,36.03
2017-05-11T09:56:59.677Z,37.7
2017-05-11T09:57:45.089Z,37.79
2017-05-11T09:58:45.122Z,36.07
2017-05-11T09:59:45.158Z,33.76
2017-05-11T10:00:45.183Z,34.27
2017-05-11T10:01:45.212Z,34.44
2017-05-11T10:02:45.246Z,34.07
2017-05-11T10:03:45.276Z,35.44
2017-05-11T10:04:45.305Z,35.93
2017-05-11T10:05:45.337Z,34.89
2017-05-11T10:06:45.365Z,32.86
2017-05-11T10:07:45.397Z,31.31
2017-05-11T10:08:45.429Z,30.71
2017-05-11T10:09:45.461Z,31.57
2017-05-11T10:10:45.491Z,32.73
2017-05-11T10:11:45.522Z,33.28
2017-05-11T10:13:00.171Z,34.23
2017-05-11T10:13:45.583Z,34.68
2017-05-11T10:14:45.612Z,35.26
2017-05-11T10:15:45.644Z,35.34
2017-05-11T10:16:45.673Z,35.74
2017-05-11T10:17:45.706Z,37.77
2017-05-11T10:18:45.734Z,35.26
2017-05-11T10:19:45.765Z,35.26
2017-05-11T10:20:45.795Z,36.01
2017-05-11T10:21:45.826Z,35.92
2017-05-11T10:22:45.856Z,37.35
2017-05-11T10:23:45.888Z,37.93
2017-05-11T10:24:45.920Z,37.95
2017-05-11T10:25:45.948Z,38.87
2017-05-11T10:26:45.978Z,41.28
2017-05-11T10:27:46.014Z,38.97
2017-05-11T10:29:00.655Z,38.37
2017-05-11T10:29:46.068Z,39.61
2017-05-11T10:30:46.098Z,40.47
2017-05-11T10:31:46.126Z,41.78
2017-05-11T10:32:46.160Z,42.26
2017-05-11T10:33:46.185Z,42.36
2017-05-11T10:34:46.217Z,42.46
2017-05-11T10:35:46.249Z,43.03
2017-05-11T10:36:46.276Z,43.4
2017-05-11T10:37:46.305Z,43.01
2017-05-11T10:38:46.335Z,43.49
2017-05-11T10:39:46.365Z,43.01
2017-05-11T10:40:46.394Z,43.78
2017-05-11T10:41:46.456Z,43.71
2017-05-11T10:42:46.451Z,42.16
2017-05-11T10:43:46.479Z,43.99
2017-05-11T10:45:01.128Z,43.24
2017-05-11T10:45:46.539Z,43.05
2017-05-11T10:46:46.569Z,43.15
2017-05-11T10:47:46.597Z,43.24
2017-05-11T10:48:46.627Z,43.34
2017-05-11T10:49:46.655Z,42.57
2017-05-11T10:50:46.683Z,46.42
2017-05-11T10:51:46.712Z,41.92
2017-05-11T10:52:46.749Z,42.21
2017-05-11T10:53:46.465Z,43.54
2017-05-11T10:54:46.496Z,43.15
2017-05-11T10:55:46.523Z,43.15
2017-05-11T10:58:46.913Z,43.59
2017-05-11T11:00:01.560Z,43.78
2017-05-11T11:00:46.971Z,43.97
2017-05-11T11:01:46.997Z,43.49
2017-05-11T11:02:47.026Z,44.35
2017-05-11T11:03:46.751Z,43.85
2017-05-11T11:04:47.082Z,44.43
2017-05-11T11:05:47.111Z,44.79
2017-05-11T11:06:47.139Z,46.93
2017-05-11T11:07:47.166Z,45.32
2017-05-11T11:08:47.195Z,45.99
2017-05-11T11:09:47.222Z,44.19
2017-05-11T11:11:47.277Z,46.16
2017-05-11T11:12:47.306Z,45.1
2017-05-11T11:13:47.334Z,45.7
2017-05-11T11:14:47.363Z,45.32
2017-05-11T11:15:47.390Z,44.17
2017-05-11T11:16:47.420Z,44.93
2017-05-11T11:17:47.445Z,45.9
2017-05-11T11:18:47.471Z,45.92
2017-05-11T11:19:47.195Z,46.88
2017-05-11T11:20:47.527Z,43.13
2017-05-11T11:21:47.555Z,44.65
2017-05-11T11:22:47.582Z,44.55
2017-05-11T11:23:47.609Z,44.72
2017-05-11T11:24:47.637Z,45.68
2017-05-11T11:25:47.663Z,45.97
2017-05-11T11:26:47.691Z,45.97
2017-05-11T11:27:47.720Z,46.74
2017-05-11T11:29:47.772Z,45.85
2017-05-11T11:30:47.799Z,46.14
2017-05-11T11:32:02.448Z,46.23
2017-05-11T11:32:47.860Z,46.64
2017-05-11T11:33:47.883Z,47.03
2017-05-11T11:34:47.910Z,46.38
2017-05-11T11:35:47.936Z,44.93
2017-05-11T11:36:47.964Z,45.32
2017-05-11T11:37:47.991Z,47.03
2017-05-11T11:38:48.017Z,46.64
2017-05-11T11:39:48.053Z,46.16
2017-05-11T11:40:48.106Z,46.26
2017-05-11T11:41:48.097Z,47.13
2017-05-11T11:42:48.125Z,47.61
2017-05-11T11:44:48.181Z,47.82
2017-05-11T11:45:48.206Z,46.47
2017-05-11T11:46:48.232Z,45.7
2017-05-11T11:48:02.878Z,47.13
2017-05-11T11:48:48.289Z,46.38
2017-05-11T11:49:48.314Z,46.19
2017-05-11T11:50:48.345Z,45.51
2017-05-11T11:51:48.372Z,44.84
2017-05-11T11:52:48.395Z,45.13
2017-05-11T11:53:48.117Z,46.88
2017-05-11T11:54:48.449Z,45.46
2017-05-11T11:55:48.476Z,44.21
2017-05-11T11:56:48.503Z,42.19
2017-05-11T11:59:48.605Z,45.46
2017-05-11T12:01:48.635Z,44.04
2017-05-11T12:02:48.668Z,44.04
2017-05-11T12:04:03.306Z,43.85
2017-05-11T12:04:48.719Z,41.82
2017-05-11T12:05:48.744Z,40.47
2017-05-11T12:06:48.774Z,41.51
2017-05-11T12:07:48.797Z,42.38
2017-05-11T12:08:48.825Z,42.19
2017-05-11T12:09:48.851Z,43.15
2017-05-11T12:10:48.880Z,43.24
2017-05-11T12:11:48.903Z,43.54
2017-05-11T12:12:48.931Z,45.48
2017-05-11T12:13:48.957Z,45
2017-05-11T12:14:48.984Z,43.85
2017-05-11T12:16:49.038Z,44.04
2017-05-11T12:17:49.064Z,46.06
2017-05-11T12:18:49.092Z,43.17
2017-05-11T12:20:03.736Z,42.21
2017-05-11T12:20:49.146Z,42.67
2017-05-11T12:21:49.177Z,42.38
2017-05-11T12:22:49.199Z,42.09
2017-05-11T12:23:49.225Z,42.28
2017-05-11T12:24:49.254Z,42.93
2017-05-11T12:25:49.282Z,42.36
2017-05-11T12:26:49.308Z,43.9
2017-05-11T12:27:49.333Z,43.23
2017-05-11T12:28:49.363Z,43.15
2017-05-11T12:29:49.386Z,43.05
2017-05-11T12:30:49.414Z,43.15
2017-05-11T12:33:49.496Z,42.28
2017-05-11T12:35:04.140Z,42.09
2017-05-11T12:35:49.548Z,41.89
2017-05-11T12:36:49.575Z,41.8
2017-05-11T12:37:49.602Z,43.03
2017-05-11T12:38:49.638Z,43.61
2017-05-11T12:39:49.657Z,43.8
2017-05-11T12:40:49.380Z,43.15
2017-05-11T12:41:49.711Z,43.05
2017-05-11T12:42:49.736Z,43.03
2017-05-11T12:43:49.764Z,42.84
2017-05-11T12:44:49.789Z,43.49
2017-05-11T12:45:49.816Z,45.49
2017-05-11T12:48:49.895Z,43.99
2017-05-11T12:49:49.922Z,43.15
2017-05-11T12:50:49.948Z,43.24
2017-05-11T12:51:49.973Z,43.44
2017-05-11T12:52:50.000Z,44.02
2017-05-11T12:53:50.027Z,43.37
2017-05-11T12:54:50.054Z,44.62
2017-05-11T12:55:50.080Z,43.55
2017-05-11T12:56:50.106Z,42.3
2017-05-11T12:57:50.137Z,41.34
2017-05-11T12:58:50.159Z,41.63
2017-05-11T12:59:50.188Z,42.38
2017-05-11T13:00:50.214Z,42.47
2017-05-11T13:01:50.241Z,44.02
2017-05-11T13:02:50.266Z,45.56
2017-05-11T13:03:50.300Z,43.46
2017-05-11T13:04:50.320Z,42.4
2017-05-11T13:05:50.345Z,42.11
2017-05-11T13:07:04.991Z,41.05
2017-05-11T13:07:50.402Z,41.14
2017-05-11T13:08:50.432Z,40.86
2017-05-11T13:09:50.454Z,40.95
2017-05-11T13:10:50.482Z,41.71
2017-05-11T13:11:50.510Z,40.86
2017-05-11T13:12:50.539Z,41.05
2017-05-11T13:13:50.559Z,41.89
2017-05-11T13:14:50.598Z,42.19
2017-05-11T13:15:50.617Z,42.21
2017-05-11T13:16:50.644Z,41.63
2017-05-11T13:17:50.666Z,40.66
2017-05-11T13:18:50.694Z,41.8
2017-05-11T13:19:50.722Z,40.57
2017-05-11T13:20:50.747Z,40.57
2017-05-11T13:21:50.776Z,41.44
2017-05-11T13:23:05.417Z,41.61
2017-05-11T13:23:50.827Z,40.84
2017-05-11T13:24:50.856Z,40.16
2017-05-11T13:25:50.879Z,42.02
2017-05-11T13:26:50.603Z,41.34
2017-05-11T13:27:50.935Z,41.14
2017-05-11T13:28:50.959Z,40.86
2017-05-11T13:29:50.987Z,40.86
2017-05-11T13:30:51.013Z,39.7
2017-05-11T13:31:51.039Z,39.7
2017-05-11T13:32:51.065Z,39.41
2017-05-11T13:33:51.094Z,40.66
2017-05-11T13:35:51.149Z,40.95
2017-05-11T13:36:51.173Z,40.09
2017-05-11T13:37:51.199Z,39.89
2017-05-11T13:39:05.844Z,39.79
2017-05-11T13:39:51.253Z,39.41
2017-05-11T13:40:51.279Z,39.89
2017-05-11T13:41:51.307Z,39.89
2017-05-11T13:42:51.335Z,40.28
2017-05-11T13:43:51.362Z,39.31
2017-05-11T13:44:51.386Z,40.76
2017-05-11T13:45:51.414Z,40.57
2017-05-11T13:46:51.440Z,38.93
2017-05-11T13:47:51.467Z,38.83
2017-05-11T13:48:51.506Z,38.45